Terminal Aerodrome Forecast
Issued by NWS Sterling, VA

Current Version | Previous Version | Graphics & Text | Print | Product List | Glossary On
Versions: 1 2 3 4 5 6 7 8 9 10 11 12 13 14 15 16 17 18 19 20 21 22 23 24 25
277
FTUS41 KLWX 201124
TAFDCA
TAF
KDCA 201124Z 2012/2118 22004KT P6SM FEW150 FEW250
     FM210000 28005KT P6SM FEW200 SCT250
     FM211200 VRB03KT P6SM BKN025
     FM211300 VRB03KT P6SM SCT025 BKN050=

USA.gov is the U.S. government's official web portal to all federal, state and local government web resources and services.